createdAt,value
2023-03-04T00:00:01.570Z,1.80
2023-03-04T00:00:33.693Z,1.80
2023-03-04T00:01:08.551Z,1.82
2023-03-04T00:01:40.717Z,1.81
2023-03-04T00:02:13.028Z,1.76
2023-03-04T00:02:47.802Z,1.76
2023-03-04T00:03:20.062Z,1.78
2023-03-04T00:03:52.145Z,1.77
2023-03-04T00:04:25.180Z,1.78
2023-03-04T00:04:59.977Z,1.77
2023-03-04T00:05:32.137Z,1.82
2023-03-04T00:06:05.226Z,1.81
2023-03-04T00:06:40.204Z,1.78
2023-03-04T00:07:16.911Z,1.77
2023-03-04T00:07:52.010Z,1.73
2023-03-04T00:08:24.217Z,1.75
2023-03-04T00:08:59.463Z,1.74
2023-03-04T00:09:34.120Z,1.73
2023-03-04T00:10:07.537Z,1.72
2023-03-04T00:10:39.689Z,1.73
2023-03-04T00:11:14.417Z,1.71
2023-03-04T00:11:46.641Z,1.72
2023-03-04T00:12:19.191Z,1.74
2023-03-04T00:12:53.839Z,1.73
2023-03-04T00:13:26.383Z,1.73
2023-03-04T00:13:58.629Z,1.72
2023-03-04T00:14:30.763Z,1.71
2023-03-04T00:15:05.458Z,1.71
2023-03-04T00:15:37.582Z,1.70
2023-03-04T00:16:09.787Z,1.69
2023-03-04T00:16:44.649Z,1.72
2023-03-04T00:17:17.341Z,1.71
2023-03-04T00:17:49.526Z,1.71
2023-03-04T00:18:24.283Z,1.69
2023-03-04T00:18:57.435Z,1.66
2023-03-04T00:19:29.510Z,1.67
2023-03-04T00:20:04.186Z,1.69
2023-03-04T00:20:36.285Z,1.69
2023-03-04T00:21:08.475Z,1.69
2023-03-04T00:21:43.425Z,1.67
2023-03-04T00:22:15.914Z,1.66
2023-03-04T00:22:50.699Z,1.66
2023-03-04T00:23:22.942Z,1.65
2023-03-04T00:23:55.063Z,1.66
2023-03-04T00:24:33.293Z,1.66
2023-03-04T00:25:06.409Z,1.68
2023-03-04T00:25:38.479Z,1.67
2023-03-04T00:26:13.616Z,1.67
2023-03-04T00:26:47.967Z,1.66
2023-03-04T00:27:20.336Z,1.66
2023-03-04T00:27:52.528Z,1.67
2023-03-04T00:28:28.073Z,1.70
2023-03-04T00:29:00.261Z,1.68
2023-03-04T00:29:33.372Z,1.68
2023-03-04T00:30:09.813Z,1.68
2023-03-04T00:30:41.972Z,1.69
2023-03-04T00:31:14.069Z,1.71
2023-03-04T00:31:48.899Z,1.70
2023-03-04T00:32:21.150Z,1.68
2023-03-04T00:32:53.741Z,1.67
2023-03-04T00:33:29.416Z,1.68
2023-03-04T00:34:01.508Z,1.68
2023-03-04T00:34:33.635Z,1.68
2023-03-04T00:35:09.716Z,1.68
2023-03-04T00:35:42.173Z,1.66
2023-03-04T00:36:14.312Z,1.67
2023-03-04T00:36:46.752Z,1.68
2023-03-04T00:37:21.477Z,1.69
2023-03-04T00:37:53.862Z,1.68
2023-03-04T00:38:26.211Z,1.69
2023-03-04T00:39:00.979Z,1.69
2023-03-04T00:39:36.896Z,1.66
2023-03-04T00:40:11.421Z,1.64
2023-03-04T00:40:46.096Z,1.65
2023-03-04T00:41:18.275Z,1.64
2023-03-04T00:41:50.376Z,1.64
2023-03-04T00:42:25.068Z,1.67
2023-03-04T00:42:57.225Z,1.64
2023-03-04T00:43:29.927Z,1.66
2023-03-04T00:44:04.726Z,1.66
2023-03-04T00:44:37.582Z,1.64
2023-03-04T00:45:10.740Z,1.65
2023-03-04T00:45:45.459Z,1.63
2023-03-04T00:46:17.671Z,1.63
2023-03-04T00:46:49.862Z,1.64
2023-03-04T00:47:24.638Z,1.63
2023-03-04T00:47:56.739Z,1.62
2023-03-04T00:48:29.359Z,1.62
2023-03-04T00:49:04.070Z,1.63
2023-03-04T00:49:38.072Z,1.63
2023-03-04T00:50:11.559Z,1.61
2023-03-04T00:50:46.724Z,1.59
2023-03-04T00:51:18.811Z,1.62
2023-03-04T00:51:51.044Z,1.61
2023-03-04T00:52:23.249Z,1.59
2023-03-04T00:52:57.910Z,1.57
2023-03-04T00:53:30.067Z,1.55
2023-03-04T00:54:02.327Z,1.58
2023-03-04T00:54:39.574Z,1.60
2023-03-04T00:55:11.805Z,1.58
2023-03-04T00:55:43.873Z,1.59
2023-03-04T00:56:18.516Z,1.59
2023-03-04T00:56:50.734Z,1.58
2023-03-04T00:57:22.855Z,1.60
2023-03-04T00:57:57.742Z,1.57
2023-03-04T00:58:29.882Z,1.56
2023-03-04T00:59:02.002Z,1.56
2023-03-04T00:59:37.711Z,1.57
2023-03-04T01:00:11.587Z,1.54
2023-03-04T01:00:43.792Z,1.51
2023-03-04T01:01:18.608Z,1.52
2023-03-04T01:01:50.770Z,1.54
2023-03-04T01:02:23.037Z,1.53
2023-03-04T01:02:57.725Z,1.53
2023-03-04T01:03:32.701Z,1.52
2023-03-04T01:04:05.232Z,1.53
2023-03-04T01:04:41.966Z,1.54
2023-03-04T01:05:14.980Z,1.55
2023-03-04T01:05:47.169Z,1.57
2023-03-04T01:06:22.078Z,1.55
2023-03-04T01:06:54.385Z,1.54
2023-03-04T01:07:26.480Z,1.54
2023-03-04T01:08:01.333Z,1.53
2023-03-04T01:08:33.564Z,1.56
2023-03-04T01:09:06.004Z,1.54
2023-03-04T01:09:43.959Z,1.50
2023-03-04T01:10:16.407Z,1.47
2023-03-04T01:10:48.692Z,1.49
2023-03-04T01:11:23.493Z,1.50
2023-03-04T01:11:56.327Z,1.50
2023-03-04T01:12:28.749Z,1.50
2023-03-04T01:13:03.780Z,1.48
2023-03-04T01:13:36.174Z,1.47
2023-03-04T01:14:09.033Z,1.47
2023-03-04T01:14:43.894Z,1.47
2023-03-04T01:15:15.996Z,1.47
2023-03-04T01:15:48.122Z,1.50
2023-03-04T01:16:22.873Z,1.48
2023-03-04T01:16:55.142Z,1.45
2023-03-04T01:17:27.508Z,1.46
2023-03-04T01:18:02.338Z,1.47
2023-03-04T01:18:34.772Z,1.46
2023-03-04T01:19:07.840Z,1.45
2023-03-04T01:19:42.685Z,1.46
2023-03-04T01:20:15.195Z,1.45
2023-03-04T01:20:47.284Z,1.46
2023-03-04T01:21:22.142Z,1.46
2023-03-04T01:21:54.253Z,1.46
2023-03-04T01:22:27.375Z,1.46
2023-03-04T01:23:02.115Z,1.47
2023-03-04T01:23:34.541Z,1.45
2023-03-04T01:24:10.738Z,1.46
2023-03-04T01:24:48.716Z,1.45
2023-03-04T01:25:21.626Z,1.45
2023-03-04T01:25:57.155Z,1.43
2023-03-04T01:26:30.588Z,1.45
2023-03-04T01:27:02.780Z,1.45
2023-03-04T01:27:37.571Z,1.45
2023-03-04T01:28:10.544Z,1.43
2023-03-04T01:28:45.425Z,1.44
2023-03-04T01:29:17.573Z,1.43
2023-03-04T01:29:49.767Z,1.43
2023-03-04T01:30:24.577Z,1.45
2023-03-04T01:30:56.730Z,1.43
2023-03-04T01:31:29.556Z,1.45
2023-03-04T01:32:04.221Z,1.45
2023-03-04T01:32:36.515Z,1.45
2023-03-04T01:33:08.844Z,1.46
2023-03-04T01:33:44.002Z,1.47
2023-03-04T01:34:18.163Z,1.45
2023-03-04T01:34:50.329Z,1.45
2023-03-04T01:35:25.110Z,1.42
2023-03-04T01:35:58.259Z,1.42
2023-03-04T01:36:31.064Z,1.43
2023-03-04T01:37:05.853Z,1.43
2023-03-04T01:37:38.449Z,1.41
2023-03-04T01:38:12.768Z,1.41
2023-03-04T01:38:47.568Z,1.42
2023-03-04T01:39:19.844Z,1.42
2023-03-04T01:39:54.687Z,1.43
2023-03-04T01:40:29.766Z,1.42
2023-03-04T01:41:02.846Z,1.39
2023-03-04T01:41:35.156Z,1.39
2023-03-04T01:42:16.440Z,1.40
2023-03-04T01:42:48.688Z,1.35
2023-03-04T01:43:27.320Z,1.37
2023-03-04T01:44:02.348Z,1.37
2023-03-04T01:44:34.523Z,1.35
2023-03-04T01:45:13.921Z,1.35
2023-03-04T01:45:47.215Z,1.32
2023-03-04T01:46:21.284Z,1.34
2023-03-04T01:46:58.312Z,1.35
2023-03-04T01:47:33.211Z,1.34
2023-03-04T01:48:05.521Z,1.32
2023-03-04T01:48:41.718Z,1.31
2023-03-04T01:49:15.977Z,1.28
2023-03-04T01:49:53.406Z,1.28
2023-03-04T01:50:33.576Z,1.27
2023-03-04T01:51:07.574Z,1.27
2023-03-04T01:51:49.282Z,1.25
2023-03-04T01:52:24.446Z,1.22
2023-03-04T01:52:56.613Z,1.25
2023-03-04T01:53:29.422Z,1.24
2023-03-04T01:54:06.492Z,1.25
2023-03-04T01:54:39.150Z,1.24
2023-03-04T01:55:18.577Z,1.26
2023-03-04T01:55:55.721Z,1.25
2023-03-04T01:56:31.639Z,1.23
2023-03-04T01:57:15.785Z,1.22
2023-03-04T01:57:52.508Z,1.23
2023-03-04T01:58:26.151Z,1.20
2023-03-04T01:59:09.653Z,1.19
2023-03-04T01:59:44.404Z,1.20
2023-03-04T02:00:23.055Z,1.19
2023-03-04T02:00:55.322Z,1.20
2023-03-04T02:01:30.040Z,1.20
2023-03-04T02:02:03.778Z,1.18
2023-03-04T02:02:36.634Z,1.19
2023-03-04T02:03:15.373Z,1.19
2023-03-04T02:03:47.606Z,1.17
2023-03-04T02:04:22.636Z,1.17
2023-03-04T02:04:57.345Z,1.17
2023-03-04T02:05:30.909Z,1.17
2023-03-04T02:06:03.080Z,1.17
2023-03-04T02:06:38.190Z,1.18
2023-03-04T02:07:10.472Z,1.17
2023-03-04T02:07:43.344Z,1.18
2023-03-04T02:08:19.300Z,1.20
2023-03-04T02:08:51.587Z,1.17
2023-03-04T02:09:24.068Z,1.17
2023-03-04T02:09:58.794Z,1.18
2023-03-04T02:10:34.615Z,1.17
2023-03-04T02:11:09.318Z,1.16
2023-03-04T02:11:41.642Z,1.13
2023-03-04T02:12:13.905Z,1.14
2023-03-04T02:12:48.928Z,1.14
2023-03-04T02:13:21.601Z,1.15
2023-03-04T02:13:54.048Z,1.18
2023-03-04T02:14:29.047Z,1.15
2023-03-04T02:15:01.344Z,1.15
2023-03-04T02:15:33.797Z,1.15
2023-03-04T02:16:08.706Z,1.15
2023-03-04T02:16:41.133Z,1.17
2023-03-04T02:17:13.882Z,1.14
2023-03-04T02:17:46.177Z,1.15
2023-03-04T02:18:23.133Z,1.12
2023-03-04T02:18:55.489Z,1.15
2023-03-04T02:19:42.230Z,1.14
2023-03-04T02:20:36.603Z,1.10
2023-03-04T02:21:15.653Z,1.05
2023-03-04T02:21:50.374Z,1.03
2023-03-04T02:22:22.841Z,1.05
2023-03-04T02:23:01.859Z,1.04
2023-03-04T02:23:44.369Z,1.09
2023-03-04T02:24:23.165Z,1.04
2023-03-04T02:25:00.753Z,1.03
2023-03-04T02:25:45.985Z,1.01
2023-03-04T02:26:21.677Z,1.00
2023-03-04T02:26:56.485Z,1.04
2023-03-04T02:27:31.357Z,0.98
2023-03-04T02:28:03.650Z,0.98
2023-03-04T02:28:35.831Z,0.98
2023-03-04T02:29:13.247Z,0.97
2023-03-04T02:29:45.832Z,0.95
2023-03-04T02:30:23.976Z,0.95
2023-03-04T02:30:58.787Z,0.94
2023-03-04T02:31:33.574Z,0.95
2023-03-04T02:32:05.920Z,0.97
2023-03-04T02:32:41.159Z,0.99
2023-03-04T02:33:17.263Z,0.98
2023-03-04T02:33:49.542Z,0.99
2023-03-04T02:34:30.527Z,0.99
2023-03-04T02:35:02.632Z,0.95
2023-03-04T02:35:35.174Z,0.98
2023-03-04T02:36:12.452Z,0.98
2023-03-04T02:36:46.257Z,0.96
2023-03-04T02:37:19.758Z,0.96
2023-03-04T02:37:54.746Z,0.95
2023-03-04T02:38:27.450Z,0.98
2023-03-04T02:39:04.430Z,0.96
2023-03-04T02:39:44.159Z,0.95
2023-03-04T02:40:24.222Z,0.95
2023-03-04T02:40:57.598Z,0.93
2023-03-04T02:41:36.610Z,0.94
2023-03-04T02:42:09.536Z,0.93
2023-03-04T02:42:43.969Z,0.92
2023-03-04T02:43:18.842Z,0.92
2023-03-04T02:43:54.580Z,0.94
2023-03-04T02:44:28.905Z,0.94
2023-03-04T02:45:02.423Z,0.94
2023-03-04T02:45:43.854Z,0.94
2023-03-04T02:46:16.323Z,0.93
2023-03-04T02:46:53.474Z,0.93
2023-03-04T02:47:25.660Z,0.91
2023-03-04T02:48:00.233Z,0.88
2023-03-04T02:48:35.093Z,0.88
2023-03-04T02:49:07.243Z,0.88
2023-03-04T02:49:41.474Z,0.88
2023-03-04T02:50:16.312Z,0.86
2023-03-04T02:50:53.106Z,0.85
2023-03-04T02:51:25.177Z,0.83
2023-03-04T02:52:03.796Z,0.84
2023-03-04T02:52:36.917Z,0.83
2023-03-04T02:53:09.338Z,0.85
2023-03-04T02:53:44.075Z,0.83
2023-03-04T02:54:18.873Z,0.84
2023-03-04T02:54:51.211Z,0.83
2023-03-04T02:55:26.275Z,0.83
2023-03-04T02:55:58.487Z,0.83
2023-03-04T02:56:37.784Z,0.86
2023-03-04T02:57:15.018Z,0.86
2023-03-04T02:57:49.752Z,0.86
2023-03-04T02:58:22.134Z,0.86
2023-03-04T02:58:56.830Z,0.85
2023-03-04T02:59:29.524Z,0.84
2023-03-04T03:00:01.787Z,0.82
2023-03-04T03:00:36.517Z,0.82
2023-03-04T03:01:09.769Z,0.83
2023-03-04T03:01:42.294Z,0.82
2023-03-04T03:02:17.145Z,0.79
2023-03-04T03:02:49.293Z,0.82
2023-03-04T03:03:21.888Z,0.84
2023-03-04T03:03:56.721Z,0.84
2023-03-04T03:04:29.588Z,0.84
2023-03-04T03:05:02.324Z,0.82
2023-03-04T03:05:35.251Z,0.84
2023-03-04T03:06:11.273Z,0.85
2023-03-04T03:06:43.764Z,0.85
2023-03-04T03:07:16.710Z,0.89
2023-03-04T03:07:51.613Z,0.86
2023-03-04T03:08:24.418Z,0.91
2023-03-04T03:08:56.524Z,0.85
2023-03-04T03:09:31.356Z,0.82
2023-03-04T03:10:03.860Z,0.85
2023-03-04T03:10:36.567Z,0.83
2023-03-04T03:11:13.101Z,0.86
2023-03-04T03:11:48.038Z,0.90
2023-03-04T03:12:20.388Z,0.84
2023-03-04T03:12:55.566Z,0.83
2023-03-04T03:13:29.035Z,0.86
2023-03-04T03:14:02.416Z,0.86
2023-03-04T03:14:34.570Z,0.85
2023-03-04T03:15:12.055Z,0.86
2023-03-04T03:15:44.943Z,0.86
2023-03-04T03:16:17.118Z,0.87
2023-03-04T03:16:51.973Z,0.87
2023-03-04T03:17:24.207Z,0.85
2023-03-04T03:17:56.945Z,0.87
2023-03-04T03:18:31.633Z,0.88
2023-03-04T03:19:03.911Z,0.84
2023-03-04T03:19:36.456Z,0.89
2023-03-04T03:20:15.845Z,0.91
2023-03-04T03:20:48.024Z,0.89
2023-03-04T03:21:20.280Z,0.94
2023-03-04T03:21:55.023Z,0.93
2023-03-04T03:22:27.160Z,0.94
2023-03-04T03:22:59.285Z,0.97
2023-03-04T03:23:34.009Z,0.96
2023-03-04T03:24:06.405Z,0.93
2023-03-04T03:24:38.585Z,0.95
2023-03-04T03:25:16.361Z,0.92
2023-03-04T03:25:48.532Z,0.92
2023-03-04T03:26:21.161Z,0.94
2023-03-04T03:26:58.592Z,0.92
2023-03-04T03:27:31.184Z,0.93
2023-03-04T03:28:03.311Z,0.93
2023-03-04T03:28:38.422Z,0.93
2023-03-04T03:29:10.703Z,0.93
2023-03-04T03:29:43.002Z,0.93
2023-03-04T03:30:18.939Z,0.92
2023-03-04T03:30:51.157Z,0.92
2023-03-04T03:31:23.285Z,0.94
2023-03-04T03:31:58.670Z,0.93
2023-03-04T03:32:30.906Z,0.92
2023-03-04T03:33:03.089Z,0.93
2023-03-04T03:33:38.352Z,0.93
2023-03-04T03:34:11.008Z,0.93
2023-03-04T03:34:43.286Z,0.92
2023-03-04T03:35:18.119Z,0.94
2023-03-04T03:35:50.501Z,0.97
2023-03-04T03:36:22.854Z,0.96
2023-03-04T03:36:55.136Z,0.96
2023-03-04T03:37:29.983Z,0.92
2023-03-04T03:38:02.272Z,0.89
2023-03-04T03:38:34.844Z,0.90
2023-03-04T03:39:09.626Z,0.89
2023-03-04T03:39:42.050Z,0.88
2023-03-04T03:40:14.616Z,0.87
2023-03-04T03:40:49.472Z,0.86
2023-03-04T03:41:21.619Z,0.87
2023-03-04T03:41:56.338Z,0.88
2023-03-04T03:42:31.057Z,0.89
2023-03-04T03:43:03.332Z,0.91
2023-03-04T03:43:35.537Z,0.91
2023-03-04T03:44:07.958Z,0.92
2023-03-04T03:44:42.850Z,0.89
2023-03-04T03:45:15.073Z,0.86
2023-03-04T03:45:47.557Z,0.87
2023-03-04T03:46:22.443Z,0.84
2023-03-04T03:46:54.653Z,0.83
2023-03-04T03:47:26.866Z,0.85
2023-03-04T03:48:01.545Z,0.85
2023-03-04T03:48:33.796Z,0.84
2023-03-04T03:49:05.984Z,0.85
2023-03-04T03:49:40.724Z,0.87
2023-03-04T03:50:13.099Z,0.88
2023-03-04T03:50:45.751Z,0.85
2023-03-04T03:51:20.780Z,0.88
2023-03-04T03:51:53.018Z,0.86
2023-03-04T03:52:25.120Z,0.86
2023-03-04T03:53:00.093Z,0.85
2023-03-04T03:53:32.219Z,0.88
2023-03-04T03:54:04.458Z,0.88
2023-03-04T03:54:36.622Z,0.86
2023-03-04T03:55:12.556Z,0.86
2023-03-04T03:55:44.693Z,0.86
2023-03-04T03:56:16.792Z,0.82
2023-03-04T03:56:49.008Z,0.82
2023-03-04T03:57:26.536Z,0.84
2023-03-04T03:57:58.687Z,0.83
2023-03-04T03:58:30.927Z,0.85
2023-03-04T03:59:05.610Z,0.87
2023-03-04T03:59:38.425Z,0.90
2023-03-04T04:00:12.134Z,0.92
2023-03-04T04:00:49.818Z,0.90
2023-03-04T04:01:22.063Z,0.91
2023-03-04T04:01:54.508Z,0.93
2023-03-04T04:02:29.488Z,0.92
2023-03-04T04:03:02.154Z,0.89
2023-03-04T04:03:34.340Z,0.91
2023-03-04T04:04:09.101Z,0.92
2023-03-04T04:04:41.219Z,0.92
2023-03-04T04:05:13.747Z,0.91
2023-03-04T04:05:48.672Z,0.92
2023-03-04T04:06:21.007Z,0.89
2023-03-04T04:06:53.242Z,0.89
2023-03-04T04:07:27.953Z,0.89
2023-03-04T04:08:00.144Z,0.90
2023-03-04T04:08:33.476Z,0.89
2023-03-04T04:09:08.127Z,0.89
2023-03-04T04:09:40.345Z,0.92
2023-03-04T04:10:12.674Z,0.92
2023-03-04T04:10:47.908Z,0.95
2023-03-04T04:11:20.023Z,0.94
2023-03-04T04:11:52.304Z,0.95
2023-03-04T04:12:29.890Z,0.95
2023-03-04T04:13:01.990Z,0.93
2023-03-04T04:13:34.170Z,0.95
2023-03-04T04:14:06.691Z,0.95
2023-03-04T04:14:41.634Z,0.95
2023-03-04T04:15:14.060Z,0.91
2023-03-04T04:15:46.181Z,0.93
2023-03-04T04:16:20.986Z,0.93
2023-03-04T04:16:53.271Z,0.92
2023-03-04T04:17:25.465Z,0.93
2023-03-04T04:18:00.265Z,0.94
2023-03-04T04:18:32.672Z,0.95
2023-03-04T04:19:07.766Z,0.96
2023-03-04T04:19:42.971Z,0.96
2023-03-04T04:20:15.114Z,0.97
2023-03-04T04:20:49.125Z,0.97
2023-03-04T04:21:21.241Z,0.96
2023-03-04T04:21:56.242Z,0.99
2023-03-04T04:22:28.510Z,0.96
2023-03-04T04:23:00.845Z,0.97
2023-03-04T04:23:37.976Z,0.96
2023-03-04T04:24:10.183Z,0.97
2023-03-04T04:24:43.805Z,0.98
2023-03-04T04:25:22.948Z,1.00
2023-03-04T04:25:55.601Z,1.01
2023-03-04T04:26:27.702Z,1.01
2023-03-04T04:27:03.534Z,1.02
2023-03-04T04:27:38.612Z,1.00
2023-03-04T04:28:10.862Z,1.00
2023-03-04T04:28:45.654Z,0.99
2023-03-04T04:29:17.879Z,1.00
2023-03-04T04:29:50.896Z,1.00
2023-03-04T04:30:25.802Z,1.02
2023-03-04T04:30:58.055Z,1.01
2023-03-04T04:31:30.336Z,1.02
2023-03-04T04:32:05.422Z,1.03
2023-03-04T04:32:38.264Z,1.02
2023-03-04T04:33:10.715Z,1.03
2023-03-04T04:33:45.507Z,1.02
2023-03-04T04:34:17.659Z,1.04
2023-03-04T04:34:49.779Z,1.04
2023-03-04T04:35:24.693Z,1.05
2023-03-04T04:35:56.950Z,1.05
2023-03-04T04:36:31.673Z,1.04
2023-03-04T04:37:03.784Z,1.04
2023-03-04T04:37:36.359Z,1.04
2023-03-04T04:38:12.233Z,1.06
2023-03-04T04:38:45.349Z,1.06
2023-03-04T04:39:18.238Z,1.07
2023-03-04T04:39:55.472Z,1.09
2023-03-04T04:40:28.021Z,1.07
2023-03-04T04:41:00.532Z,1.09
2023-03-04T04:41:39.786Z,1.08
2023-03-04T04:42:12.029Z,1.07
2023-03-04T04:42:46.762Z,1.12
2023-03-04T04:43:18.993Z,1.09
2023-03-04T04:43:54.328Z,1.12
2023-03-04T04:44:26.703Z,1.11
2023-03-04T04:44:58.814Z,1.12
2023-03-04T04:45:33.549Z,1.14
2023-03-04T04:46:05.809Z,1.12
2023-03-04T04:46:38.321Z,1.12
2023-03-04T04:47:13.148Z,1.11
2023-03-04T04:47:45.244Z,1.13
2023-03-04T04:48:17.412Z,1.11
2023-03-04T04:48:52.762Z,1.12
2023-03-04T04:49:24.884Z,1.14
2023-03-04T04:49:57.233Z,1.14
2023-03-04T04:50:33.122Z,1.15
2023-03-04T04:51:05.840Z,1.16
2023-03-04T04:51:41.485Z,1.19
2023-03-04T04:52:13.720Z,1.19
2023-03-04T04:52:45.928Z,1.20
2023-03-04T04:53:20.648Z,1.21
2023-03-04T04:53:52.753Z,1.21
2023-03-04T04:54:27.697Z,1.23
2023-03-04T04:55:00.303Z,1.23
2023-03-04T04:55:33.913Z,1.22
2023-03-04T04:56:10.878Z,1.24
2023-03-04T04:56:45.715Z,1.24
2023-03-04T04:57:18.636Z,1.24
2023-03-04T04:57:54.256Z,1.26
2023-03-04T04:58:29.492Z,1.26
2023-03-04T04:59:04.621Z,1.25
2023-03-04T04:59:39.422Z,1.24
2023-03-04T05:00:13.133Z,1.24
2023-03-04T05:00:45.491Z,1.24
2023-03-04T05:01:18.152Z,1.24
2023-03-04T05:01:52.910Z,1.25
2023-03-04T05:02:24.999Z,1.22
2023-03-04T05:02:57.117Z,1.23
2023-03-04T05:03:32.803Z,1.24
2023-03-04T05:04:06.057Z,1.24
2023-03-04T05:04:38.836Z,1.24
2023-03-04T05:05:13.971Z,1.25
2023-03-04T05:05:46.385Z,1.27
2023-03-04T05:06:19.237Z,1.28
2023-03-04T05:06:54.320Z,1.27
2023-03-04T05:07:27.319Z,1.28
2023-03-04T05:07:59.529Z,1.27
2023-03-04T05:08:31.749Z,1.26
2023-03-04T05:09:07.603Z,1.32
2023-03-04T05:09:39.810Z,1.28
2023-03-04T05:10:12.127Z,1.29
2023-03-04T05:10:46.922Z,1.32
2023-03-04T05:11:19.972Z,1.32
2023-03-04T05:11:52.106Z,1.33
2023-03-04T05:12:26.909Z,1.33
2023-03-04T05:13:01.808Z,1.29
2023-03-04T05:13:34.656Z,1.30
2023-03-04T05:14:09.929Z,1.29
2023-03-04T05:14:42.102Z,1.29
2023-03-04T05:15:14.372Z,1.29
2023-03-04T05:15:49.193Z,1.27
2023-03-04T05:16:21.350Z,1.27
2023-03-04T05:16:53.576Z,1.28
2023-03-04T05:17:28.407Z,1.29
2023-03-04T05:18:00.641Z,1.31
2023-03-04T05:18:34.445Z,1.33
2023-03-04T05:19:09.697Z,1.31
2023-03-04T05:19:41.796Z,1.30
2023-03-04T05:20:14.399Z,1.31
2023-03-04T05:20:50.144Z,1.33
2023-03-04T05:21:24.946Z,1.34
2023-03-04T05:21:57.093Z,1.35
2023-03-04T05:22:29.494Z,1.37
2023-03-04T05:23:04.632Z,1.39
2023-03-04T05:23:38.869Z,1.40
2023-03-04T05:24:13.807Z,1.39
2023-03-04T05:24:45.931Z,1.35
2023-03-04T05:25:18.207Z,1.36
2023-03-04T05:25:53.319Z,1.35
2023-03-04T05:26:25.542Z,1.34
2023-03-04T05:27:00.375Z,1.33
2023-03-04T05:27:32.513Z,1.33
2023-03-04T05:28:12.603Z,1.34
2023-03-04T05:28:47.630Z,1.34
2023-03-04T05:29:20.003Z,1.34
2023-03-04T05:29:52.126Z,1.34
2023-03-04T05:30:24.255Z,1.33
2023-03-04T05:30:59.051Z,1.34
2023-03-04T05:31:31.766Z,1.34
2023-03-04T05:32:04.269Z,1.36
2023-03-04T05:32:38.970Z,1.34
2023-03-04T05:33:13.155Z,1.35
2023-03-04T05:33:45.384Z,1.34
2023-03-04T05:34:20.229Z,1.35
2023-03-04T05:34:52.406Z,1.35
2023-03-04T05:35:25.312Z,1.37
2023-03-04T05:36:01.529Z,1.40
2023-03-04T05:36:33.935Z,1.41
2023-03-04T05:37:06.136Z,1.44
2023-03-04T05:37:41.141Z,1.45
2023-03-04T05:38:15.537Z,1.45
2023-03-04T05:38:47.738Z,1.47
2023-03-04T05:39:22.535Z,1.46
2023-03-04T05:39:54.660Z,1.47
2023-03-04T05:40:26.971Z,1.49
2023-03-04T05:41:03.851Z,1.48
2023-03-04T05:41:35.961Z,1.47
2023-03-04T05:42:08.139Z,1.49
2023-03-04T05:42:42.789Z,1.49
2023-03-04T05:43:17.580Z,1.49
2023-03-04T05:43:50.132Z,1.49
2023-03-04T05:44:24.835Z,1.49
2023-03-04T05:44:57.045Z,1.47
2023-03-04T05:45:29.179Z,1.49
2023-03-04T05:46:04.827Z,1.49
2023-03-04T05:46:37.138Z,1.47
2023-03-04T05:47:09.545Z,1.48
2023-03-04T05:47:44.276Z,1.49
2023-03-04T05:48:16.537Z,1.51
2023-03-04T05:48:48.747Z,1.52
2023-03-04T05:49:23.569Z,1.52
2023-03-04T05:49:55.705Z,1.54
2023-03-04T05:50:27.837Z,1.55
2023-03-04T05:51:04.534Z,1.54
2023-03-04T05:51:36.932Z,1.56
2023-03-04T05:52:09.121Z,1.58
2023-03-04T05:52:41.338Z,1.57
2023-03-04T05:53:16.260Z,1.59
2023-03-04T05:53:49.478Z,1.57
2023-03-04T05:54:21.936Z,1.57
2023-03-04T05:54:56.616Z,1.55
2023-03-04T05:55:30.134Z,1.56
2023-03-04T05:56:07.704Z,1.53
2023-03-04T05:56:42.488Z,1.52
2023-03-04T05:57:14.688Z,1.50
2023-03-04T05:57:47.239Z,1.50
2023-03-04T05:58:24.873Z,1.49
2023-03-04T05:58:57.600Z,1.50
2023-03-04T05:59:29.944Z,1.53
2023-03-04T06:00:05.579Z,1.53
2023-03-04T06:00:45.390Z,1.58
2023-03-04T06:01:21.790Z,1.57
2023-03-04T06:01:53.906Z,1.56
2023-03-04T06:02:26.080Z,1.60
2023-03-04T06:03:00.932Z,1.62
2023-03-04T06:03:33.621Z,1.67
2023-03-04T06:04:05.906Z,1.66
2023-03-04T06:04:40.698Z,1.68
2023-03-04T06:05:13.856Z,1.68
2023-03-04T06:05:46.040Z,1.69
2023-03-04T06:06:20.786Z,1.71
2023-03-04T06:06:52.882Z,1.72
2023-03-04T06:07:24.955Z,1.73
2023-03-04T06:07:59.646Z,1.75
2023-03-04T06:08:32.570Z,1.76
2023-03-04T06:09:04.937Z,1.77
2023-03-04T06:09:39.777Z,1.74
2023-03-04T06:10:13.839Z,1.76
2023-03-04T06:10:46.127Z,1.75
2023-03-04T06:11:20.869Z,1.75
2023-03-04T06:11:53.020Z,1.74
2023-03-04T06:12:28.945Z,1.76
2023-03-04T06:13:01.076Z,1.77
2023-03-04T06:13:38.468Z,1.79
2023-03-04T06:14:10.751Z,1.80
2023-03-04T06:14:42.966Z,1.82
2023-03-04T06:15:17.828Z,1.84
2023-03-04T06:15:54.715Z,1.86
2023-03-04T06:16:26.913Z,1.88
2023-03-04T06:17:01.754Z,1.89
2023-03-04T06:17:34.264Z,1.90
2023-03-04T06:18:06.618Z,1.88
2023-03-04T06:18:41.380Z,1.91
2023-03-04T06:19:13.487Z,1.90
2023-03-04T06:19:45.667Z,1.91
2023-03-04T06:20:20.950Z,1.90
2023-03-04T06:20:57.538Z,1.89
2023-03-04T06:21:29.664Z,1.88
2023-03-04T06:22:04.419Z,1.86
2023-03-04T06:22:36.640Z,1.86
2023-03-04T06:23:08.774Z,1.87
2023-03-04T06:23:44.542Z,1.82
2023-03-04T06:24:16.798Z,1.80
2023-03-04T06:24:48.943Z,1.80
2023-03-04T06:25:21.173Z,1.81
2023-03-04T06:25:56.666Z,1.85
2023-03-04T06:26:28.765Z,1.90
2023-03-04T06:27:01.045Z,1.87
2023-03-04T06:27:35.752Z,1.88
2023-03-04T06:28:07.943Z,1.87
2023-03-04T06:28:42.740Z,1.84
2023-03-04T06:29:17.499Z,1.85
2023-03-04T06:29:49.594Z,1.85
2023-03-04T06:30:22.487Z,1.84
2023-03-04T06:30:58.553Z,1.84
2023-03-04T06:31:30.747Z,1.86
2023-03-04T06:32:03.003Z,1.84
2023-03-04T06:32:37.718Z,1.82
2023-03-04T06:33:09.819Z,1.83
2023-03-04T06:33:41.979Z,1.82
2023-03-04T06:34:16.770Z,1.84
2023-03-04T06:34:48.886Z,1.84
2023-03-04T06:35:21.398Z,1.86
2023-03-04T06:35:58.368Z,1.88
2023-03-04T06:36:30.665Z,1.87
2023-03-04T06:37:02.772Z,1.86
2023-03-04T06:37:37.585Z,1.87
2023-03-04T06:38:09.748Z,1.88
2023-03-04T06:38:41.947Z,1.91
2023-03-04T06:39:17.055Z,1.91
2023-03-04T06:39:49.146Z,1.92
2023-03-04T06:40:21.300Z,1.94
2023-03-04T06:40:57.582Z,1.94
2023-03-04T06:41:30.133Z,1.96
2023-03-04T06:42:02.446Z,1.93
2023-03-04T06:42:37.210Z,1.94
2023-03-04T06:43:09.362Z,1.92
2023-03-04T06:43:46.637Z,1.94
2023-03-04T06:44:18.770Z,1.94
2023-03-04T06:44:50.944Z,1.93
2023-03-04T06:45:25.665Z,1.92
2023-03-04T06:45:57.775Z,1.92
2023-03-04T06:46:30.643Z,1.90
2023-03-04T06:47:05.566Z,1.90
2023-03-04T06:47:37.889Z,1.93
2023-03-04T06:48:10.110Z,1.93
2023-03-04T06:48:44.821Z,1.95
2023-03-04T06:49:17.109Z,1.97
2023-03-04T06:49:49.168Z,1.98
2023-03-04T06:50:24.117Z,2.01
2023-03-04T06:50:56.297Z,2.02
2023-03-04T06:51:28.481Z,2.04
2023-03-04T06:52:03.429Z,2.05
2023-03-04T06:52:35.553Z,2.07
2023-03-04T06:53:07.842Z,2.09
2023-03-04T06:53:43.550Z,2.09
2023-03-04T06:54:15.788Z,2.08
2023-03-04T06:54:47.964Z,2.10
2023-03-04T06:55:23.236Z,2.10
2023-03-04T06:55:55.397Z,2.13
2023-03-04T06:56:27.568Z,2.14
2023-03-04T06:57:02.301Z,2.16
2023-03-04T06:57:34.690Z,2.18
2023-03-04T06:58:06.867Z,2.18
2023-03-04T06:58:41.672Z,2.24
2023-03-04T06:59:16.652Z,2.27
2023-03-04T06:59:51.394Z,2.27
2023-03-04T07:00:24.720Z,2.21
2023-03-04T07:00:56.940Z,2.25
2023-03-04T07:01:32.623Z,2.23
2023-03-04T07:02:04.753Z,2.25
2023-03-04T07:02:36.923Z,2.26
2023-03-04T07:03:12.139Z,2.29
2023-03-04T07:03:45.035Z,2.30
2023-03-04T07:04:17.361Z,2.30
2023-03-04T07:04:52.308Z,2.28
2023-03-04T07:05:25.287Z,2.27
2023-03-04T07:05:58.038Z,2.31
2023-03-04T07:06:33.075Z,2.36
2023-03-04T07:07:05.510Z,2.34
2023-03-04T07:07:37.660Z,2.33
2023-03-04T07:08:12.392Z,2.32
2023-03-04T07:08:45.489Z,2.31
2023-03-04T07:09:17.809Z,2.33
2023-03-04T07:09:52.521Z,2.36
2023-03-04T07:10:24.730Z,2.37
2023-03-04T07:10:56.831Z,2.34
2023-03-04T07:11:31.578Z,2.36
2023-03-04T07:12:03.789Z,2.40
2023-03-04T07:12:36.408Z,2.38
2023-03-04T07:13:11.169Z,2.40
2023-03-04T07:13:43.400Z,2.42
2023-03-04T07:14:18.254Z,2.45
2023-03-04T07:14:53.048Z,2.47
2023-03-04T07:15:25.482Z,2.48
2023-03-04T07:15:57.619Z,2.49
2023-03-04T07:16:32.493Z,2.50
2023-03-04T07:17:04.773Z,2.53
2023-03-04T07:17:36.976Z,2.56
2023-03-04T07:18:11.715Z,2.59
2023-03-04T07:18:44.753Z,2.61
2023-03-04T07:19:16.853Z,2.64
2023-03-04T07:19:51.525Z,2.65
2023-03-04T07:20:23.733Z,2.63
2023-03-04T07:20:56.062Z,2.59
2023-03-04T07:21:30.961Z,2.61
2023-03-04T07:22:03.064Z,2.62
2023-03-04T07:22:37.795Z,2.61
2023-03-04T07:23:09.958Z,2.66
2023-03-04T07:23:42.503Z,2.70
2023-03-04T07:24:17.273Z,2.71
2023-03-04T07:24:50.958Z,2.72
2023-03-04T07:25:23.043Z,2.70
2023-03-04T07:25:59.684Z,2.72
2023-03-04T07:26:31.974Z,2.76
2023-03-04T07:27:06.940Z,2.76
2023-03-04T07:27:40.938Z,2.73
2023-03-04T07:28:13.044Z,2.72
2023-03-04T07:28:47.855Z,2.72
2023-03-04T07:29:22.621Z,2.74
2023-03-04T07:29:54.789Z,2.72